sensor_id;sensor_type;location;lat;lon;timestamp;P1;durP1;ratioP1;P2;durP2;ratioP2
20104;SDS011;10212;42.714;23.310;2023-06-04T00:08:37;5.18;;;4.68;;
20104;SDS011;10212;42.714;23.310;2023-06-04T00:18:37;7.25;;;5.47;;
20104;SDS011;10212;42.714;23.310;2023-06-04T00:28:38;6.97;;;5.28;;
20104;SDS011;10212;42.714;23.310;2023-06-04T00:38:38;6.03;;;5.35;;
20104;SDS011;10212;42.714;23.310;2023-06-04T00:48:39;6.07;;;5.35;;
20104;SDS011;10212;42.714;23.310;2023-06-04T00:58:42;9.05;;;4.70;;
20104;SDS011;10212;42.714;23.310;2023-06-04T01:08:45;7.43;;;4.40;;
20104;SDS011;10212;42.714;23.310;2023-06-04T01:18:45;4.72;;;3.88;;
20104;SDS011;10212;42.714;23.310;2023-06-04T01:28:47;5.15;;;3.97;;
20104;SDS011;10212;42.714;23.310;2023-06-04T01:38:48;5.95;;;3.78;;
20104;SDS011;10212;42.714;23.310;2023-06-04T01:48:49;3.60;;;3.30;;
20104;SDS011;10212;42.714;23.310;2023-06-04T01:58:49;3.75;;;3.28;;
20104;SDS011;10212;42.714;23.310;2023-06-04T02:08:50;4.70;;;3.50;;
20104;SDS011;10212;42.714;23.310;2023-06-04T02:18:50;4.28;;;3.70;;
20104;SDS011;10212;42.714;23.310;2023-06-04T02:28:51;4.13;;;3.72;;
20104;SDS011;10212;42.714;23.310;2023-06-04T02:38:51;4.05;;;3.70;;
20104;SDS011;10212;42.714;23.310;2023-06-04T02:48:53;5.32;;;4.05;;
20104;SDS011;10212;42.714;23.310;2023-06-04T02:58:54;4.63;;;3.60;;
20104;SDS011;10212;42.714;23.310;2023-06-04T03:08:58;5.18;;;3.10;;
20104;SDS011;10212;42.714;23.310;2023-06-04T03:18:58;4.00;;;3.70;;
20104;SDS011;10212;42.714;23.310;2023-06-04T03:28:59;4.65;;;4.22;;
20104;SDS011;10212;42.714;23.310;2023-06-04T03:39:00;3.72;;;3.42;;
20104;SDS011;10212;42.714;23.310;2023-06-04T03:49:01;4.55;;;3.97;;
20104;SDS011;10212;42.714;23.310;2023-06-04T03:59:02;6.00;;;4.40;;
20104;SDS011;10212;42.714;23.310;2023-06-04T04:09:03;6.43;;;4.65;;
20104;SDS011;10212;42.714;23.310;2023-06-04T04:19:04;5.57;;;4.53;;
20104;SDS011;10212;42.714;23.310;2023-06-04T04:29:07;10.65;;;5.95;;
20104;SDS011;10212;42.714;23.310;2023-06-04T04:39:08;6.40;;;5.35;;
20104;SDS011;10212;42.714;23.310;2023-06-04T04:49:09;11.15;;;6.28;;
20104;SDS011;10212;42.714;23.310;2023-06-04T04:59:09;7.47;;;5.95;;
20104;SDS011;10212;42.714;23.310;2023-06-04T05:09:10;7.68;;;6.10;;
20104;SDS011;10212;42.714;23.310;2023-06-04T05:19:11;10.88;;;5.90;;
20104;SDS011;10212;42.714;23.310;2023-06-04T05:29:11;10.88;;;6.10;;
20104;SDS011;10212;42.714;23.310;2023-06-04T05:39:12;6.57;;;5.07;;
20104;SDS011;10212;42.714;23.310;2023-06-04T05:49:14;7.80;;;5.38;;
20104;SDS011;10212;42.714;23.310;2023-06-04T05:59:14;13.00;;;5.78;;
20104;SDS011;10212;42.714;23.310;2023-06-04T06:09:17;10.50;;;5.78;;
20104;SDS011;10212;42.714;23.310;2023-06-04T06:19:23;7.97;;;5.65;;
20104;SDS011;10212;42.714;23.310;2023-06-04T06:29:24;7.47;;;5.30;;
20104;SDS011;10212;42.714;23.310;2023-06-04T06:39:50;9.02;;;5.38;;
20104;SDS011;10212;42.714;23.310;2023-06-04T06:49:51;7.13;;;5.10;;
20104;SDS011;10212;42.714;23.310;2023-06-04T06:59:54;6.18;;;4.88;;
20104;SDS011;10212;42.714;23.310;2023-06-04T07:10:07;7.90;;;5.47;;
20104;SDS011;10212;42.714;23.310;2023-06-04T07:20:08;6.85;;;4.65;;
20104;SDS011;10212;42.714;23.310;2023-06-04T07:30:09;10.63;;;6.53;;
20104;SDS011;10212;42.714;23.310;2023-06-04T07:50:58;7.47;;;5.13;;
20104;SDS011;10212;42.714;23.310;2023-06-04T08:01:00;9.55;;;5.03;;
20104;SDS011;10212;42.714;23.310;2023-06-04T08:11:01;7.72;;;6.10;;
20104;SDS011;10212;42.714;23.310;2023-06-04T08:21:01;8.27;;;6.68;;
20104;SDS011;10212;42.714;23.310;2023-06-04T08:31:02;13.02;;;7.50;;
20104;SDS011;10212;42.714;23.310;2023-06-04T08:41:14;11.20;;;7.93;;
20104;SDS011;10212;42.714;23.310;2023-06-04T08:51:17;10.32;;;8.18;;
20104;SDS011;10212;42.714;23.310;2023-06-04T09:01:18;11.63;;;7.20;;
20104;SDS011;10212;42.714;23.310;2023-06-04T09:11:19;10.52;;;7.95;;
20104;SDS011;10212;42.714;23.310;2023-06-04T09:21:21;10.80;;;7.07;;
20104;SDS011;10212;42.714;23.310;2023-06-04T09:31:21;10.60;;;7.60;;
20104;SDS011;10212;42.714;23.310;2023-06-04T09:41:26;12.75;;;8.30;;
20104;SDS011;10212;42.714;23.310;2023-06-04T09:51:27;13.47;;;8.20;;
20104;SDS011;10212;42.714;23.310;2023-06-04T10:01:29;10.77;;;7.82;;
20104;SDS011;10212;42.714;23.310;2023-06-04T10:11:45;11.15;;;7.35;;
20104;SDS011;10212;42.714;23.310;2023-06-04T10:21:52;10.75;;;8.27;;
20104;SDS011;10212;42.714;23.310;2023-06-04T10:31:53;12.27;;;7.93;;
20104;SDS011;10212;42.714;23.310;2023-06-04T10:42:01;10.10;;;7.43;;
20104;SDS011;10212;42.714;23.310;2023-06-04T10:52:09;9.80;;;7.32;;
20104;SDS011;10212;42.714;23.310;2023-06-04T11:02:10;8.80;;;7.17;;
20104;SDS011;10212;42.714;23.310;2023-06-04T11:12:11;9.88;;;7.20;;
20104;SDS011;10212;42.714;23.310;2023-06-04T11:22:11;10.30;;;9.23;;
20104;SDS011;10212;42.714;23.310;2023-06-04T11:32:24;9.13;;;7.57;;
20104;SDS011;10212;42.714;23.310;2023-06-04T11:42:24;10.32;;;7.88;;
20104;SDS011;10212;42.714;23.310;2023-06-04T11:52:29;9.18;;;8.27;;
20104;SDS011;10212;42.714;23.310;2023-06-04T12:02:30;8.85;;;7.93;;
20104;SDS011;10212;42.714;23.310;2023-06-04T12:12:30;12.13;;;8.85;;
20104;SDS011;10212;42.714;23.310;2023-06-04T12:22:30;10.02;;;8.40;;
20104;SDS011;10212;42.714;23.310;2023-06-04T12:32:34;10.07;;;8.80;;
20104;SDS011;10212;42.714;23.310;2023-06-04T12:42:35;9.80;;;8.60;;
20104;SDS011;10212;42.714;23.310;2023-06-04T12:52:36;9.48;;;8.13;;
20104;SDS011;10212;42.714;23.310;2023-06-04T13:02:36;11.75;;;9.02;;
20104;SDS011;10212;42.714;23.310;2023-06-04T13:12:36;9.85;;;7.55;;
20104;SDS011;10212;42.714;23.310;2023-06-04T13:22:37;11.88;;;8.20;;
20104;SDS011;10212;42.714;23.310;2023-06-04T13:32:37;8.35;;;7.20;;
20104;SDS011;10212;42.714;23.310;2023-06-04T13:42:38;9.07;;;7.32;;
20104;SDS011;10212;42.714;23.310;2023-06-04T13:52:38;7.40;;;6.70;;
20104;SDS011;10212;42.714;23.310;2023-06-04T14:02:39;8.55;;;6.88;;
20104;SDS011;10212;42.714;23.310;2023-06-04T14:12:40;10.23;;;7.05;;
20104;SDS011;10212;42.714;23.310;2023-06-04T14:22:41;9.48;;;7.07;;
20104;SDS011;10212;42.714;23.310;2023-06-04T14:32:41;7.43;;;6.65;;
20104;SDS011;10212;42.714;23.310;2023-06-04T14:42:42;10.05;;;7.15;;
20104;SDS011;10212;42.714;23.310;2023-06-04T14:52:42;9.88;;;6.55;;
20104;SDS011;10212;42.714;23.310;2023-06-04T15:02:43;10.70;;;7.68;;
20104;SDS011;10212;42.714;23.310;2023-06-04T15:12:44;10.85;;;7.43;;
20104;SDS011;10212;42.714;23.310;2023-06-04T15:22:45;9.30;;;7.95;;
20104;SDS011;10212;42.714;23.310;2023-06-04T15:32:45;11.07;;;8.52;;
20104;SDS011;10212;42.714;23.310;2023-06-04T15:42:46;10.00;;;8.15;;
20104;SDS011;10212;42.714;23.310;2023-06-04T15:52:46;18.15;;;11.95;;
20104;SDS011;10212;42.714;23.310;2023-06-04T16:02:47;17.13;;;13.30;;
20104;SDS011;10212;42.714;23.310;2023-06-04T16:12:48;16.20;;;13.52;;
20104;SDS011;10212;42.714;23.310;2023-06-04T16:22:48;15.13;;;11.80;;
20104;SDS011;10212;42.714;23.310;2023-06-04T16:32:49;8.10;;;5.60;;
20104;SDS011;10212;42.714;23.310;2023-06-04T16:42:50;8.63;;;5.68;;
20104;SDS011;10212;42.714;23.310;2023-06-04T16:52:51;6.82;;;5.43;;
20104;SDS011;10212;42.714;23.310;2023-06-04T17:02:52;9.88;;;7.03;;
20104;SDS011;10212;42.714;23.310;2023-06-04T17:12:54;8.52;;;6.20;;
20104;SDS011;10212;42.714;23.310;2023-06-04T17:22:58;8.13;;;6.93;;
20104;SDS011;10212;42.714;23.310;2023-06-04T17:33:02;12.10;;;8.68;;
20104;SDS011;10212;42.714;23.310;2023-06-04T17:43:02;28.25;;;21.05;;
20104;SDS011;10212;42.714;23.310;2023-06-04T17:53:03;22.55;;;17.88;;
20104;SDS011;10212;42.714;23.310;2023-06-04T18:03:03;20.98;;;16.77;;
20104;SDS011;10212;42.714;23.310;2023-06-04T18:13:04;10.02;;;8.18;;
20104;SDS011;10212;42.714;23.310;2023-06-04T18:23:04;9.25;;;6.85;;
20104;SDS011;10212;42.714;23.310;2023-06-04T18:33:05;8.85;;;6.95;;
20104;SDS011;10212;42.714;23.310;2023-06-04T18:43:05;8.57;;;6.45;;
20104;SDS011;10212;42.714;23.310;2023-06-04T18:53:06;8.77;;;6.90;;
20104;SDS011;10212;42.714;23.310;2023-06-04T19:03:06;8.50;;;7.25;;
20104;SDS011;10212;42.714;23.310;2023-06-04T19:13:06;12.00;;;8.57;;
20104;SDS011;10212;42.714;23.310;2023-06-04T19:23:07;10.38;;;6.80;;
20104;SDS011;10212;42.714;23.310;2023-06-04T19:33:07;8.90;;;6.30;;
20104;SDS011;10212;42.714;23.310;2023-06-04T19:43:11;11.05;;;7.22;;
20104;SDS011;10212;42.714;23.310;2023-06-04T19:53:11;8.35;;;7.25;;
20104;SDS011;10212;42.714;23.310;2023-06-04T20:03:11;11.57;;;7.85;;
20104;SDS011;10212;42.714;23.310;2023-06-04T20:13:12;10.40;;;8.20;;
20104;SDS011;10212;42.714;23.310;2023-06-04T20:23:12;9.68;;;7.80;;
20104;SDS011;10212;42.714;23.310;2023-06-04T20:33:12;11.73;;;7.68;;
20104;SDS011;10212;42.714;23.310;2023-06-04T20:43:13;11.63;;;8.25;;
20104;SDS011;10212;42.714;23.310;2023-06-04T20:53:14;12.95;;;9.07;;
20104;SDS011;10212;42.714;23.310;2023-06-04T21:03:15;13.07;;;10.05;;
20104;SDS011;10212;42.714;23.310;2023-06-04T21:13:15;12.02;;;8.90;;
20104;SDS011;10212;42.714;23.310;2023-06-04T21:23:16;12.00;;;9.40;;
20104;SDS011;10212;42.714;23.310;2023-06-04T21:33:16;13.93;;;10.27;;
20104;SDS011;10212;42.714;23.310;2023-06-04T21:43:17;12.65;;;9.98;;
20104;SDS011;10212;42.714;23.310;2023-06-04T21:53:17;13.20;;;11.07;;
20104;SDS011;10212;42.714;23.310;2023-06-04T22:03:18;15.85;;;11.27;;
20104;SDS011;10212;42.714;23.310;2023-06-04T22:13:18;15.20;;;12.43;;
20104;SDS011;10212;42.714;23.310;2023-06-04T22:23:18;20.35;;;16.65;;
20104;SDS011;10212;42.714;23.310;2023-06-04T22:33:19;21.52;;;16.55;;
20104;SDS011;10212;42.714;23.310;2023-06-04T22:43:19;27.70;;;19.10;;
20104;SDS011;10212;42.714;23.310;2023-06-04T22:53:20;23.30;;;16.90;;
20104;SDS011;10212;42.714;23.310;2023-06-04T23:03:22;22.50;;;18.10;;
20104;SDS011;10212;42.714;23.310;2023-06-04T23:13:24;22.25;;;17.90;;
20104;SDS011;10212;42.714;23.310;2023-06-04T23:23:25;22.08;;;16.60;;
20104;SDS011;10212;42.714;23.310;2023-06-04T23:33:25;27.25;;;19.08;;
20104;SDS011;10212;42.714;23.310;2023-06-04T23:43:26;25.95;;;20.50;;
20104;SDS011;10212;42.714;23.310;2023-06-04T23:53:26;30.30;;;22.40;;
